Time;durP1;ratioP1;P1;durP2;ratioP2;P2;SDS_P1;SDS_P2;PMS_P1;PMS_P2;Temp;Humidity;BMP_temperature;BMP_pressure;BME280_temperature;BME280_humidity;BME280_pressure;Samples;Min_cycle;Max_cycle;Signal;HPM_P1;HPM_P2
2023/04/18 00:01:32;;;;;;;7.57;5.40;;;;;;;;;;5044607;28;20052;-63
2023/04/18 00:03:57;;;;;;;7.00;5.53;;;;;;;;;;5039679;28;20041;-65
2023/04/18 00:06:23;;;;;;;7.90;6.17;;;;;;;;;;5034570;28;20033;-66
2023/04/18 00:08:48;;;;;;;7.53;5.80;;;;;;;;;;5029857;28;20040;-61
2023/04/18 00:11:13;;;;;;;7.30;5.50;;;;;;;;;;5035044;28;20762;-65
2023/04/18 00:13:39;;;;;;;7.40;5.50;;;;;;;;;;5045075;28;20022;-65
2023/04/18 00:16:04;;;;;;;7.97;6.00;;;;;;;;;;5037343;28;20745;-64
2023/04/18 00:18:30;;;;;;;7.25;5.45;;;;;;;;;;5037391;28;20029;-66
2023/04/18 00:20:55;;;;;;;7.63;5.43;;;;;;;;;;5036193;28;20519;-64
2023/04/18 00:23:21;;;;;;;6.70;5.63;;;;;;;;;;5045457;28;20090;-63
2023/04/18 00:25:49;;;;;;;6.78;5.30;;;;;;;;;;5039940;28;20489;-61
2023/04/18 00:28:14;;;;;;;6.90;5.45;;;;;;;;;;5045058;28;20452;-63
2023/04/18 00:30:40;;;;;;;7.23;5.23;;;;;;;;;;5042388;28;20120;-67
2023/04/18 00:33:05;;;;;;;6.73;5.30;;;;;;;;;;5035732;28;20117;-66
2023/04/18 00:35:30;;;;;;;7.63;5.65;;;;;;;;;;5039682;28;20276;-64
2023/04/18 00:37:56;;;;;;;7.15;5.45;;;;;;;;;;5045239;28;20029;-59
2023/04/18 00:40:21;;;;;;;7.10;5.50;;;;;;;;;;5045332;28;20122;-66
2023/04/18 00:42:46;;;;;;;6.23;4.67;;;;;;;;;;5039313;28;20029;-67
2023/04/18 00:45:11;;;;;;;6.53;4.93;;;;;;;;;;5043485;28;20794;-66
2023/04/18 00:47:37;;;;;;;7.33;5.70;;;;;;;;;;5045386;28;20147;-68
2023/04/18 00:50:02;;;;;;;7.37;5.50;;;;;;;;;;5044674;28;20599;-64
2023/04/18 00:52:27;;;;;;;7.60;5.60;;;;;;;;;;5042426;28;20806;-66
2023/04/18 00:54:53;;;;;;;7.03;4.97;;;;;;;;;;5037896;28;20172;-67
2023/04/18 00:57:18;;;;;;;6.47;4.90;;;;;;;;;;5030811;28;20329;-60
2023/04/18 00:59:45;;;;;;;7.37;5.50;;;;;;;;;;5034210;28;20075;-62
2023/04/18 01:02:11;;;;;;;6.30;5.03;;;;;;;;;;5037866;28;20478;-62
2023/04/18 01:04:36;;;;;;;7.57;5.50;;;;;;;;;;5042270;28;20116;-63
2023/04/18 01:07:02;;;;;;;6.65;5.15;;;;;;;;;;5044327;28;20058;-63
2023/04/18 01:09:27;;;;;;;6.95;5.22;;;;;;;;;;5009935;28;20107;-66
2023/04/18 01:11:52;;;;;;;7.32;5.40;;;;;;;;;;5042218;28;20063;-66
2023/04/18 01:14:18;;;;;;;5.90;4.77;;;;;;;;;;5038382;28;20105;-66
2023/04/18 01:16:43;;;;;;;7.03;5.38;;;;;;;;;;5036923;28;20842;-66
2023/04/18 01:19:08;;;;;;;6.13;4.90;;;;;;;;;;5044272;28;20033;-64
2023/04/18 01:21:35;;;;;;;6.67;4.93;;;;;;;;;;5040050;28;20029;-67
2023/04/18 01:24:07;;;;;;;6.63;4.82;;;;;;;;;;5041028;28;20294;-63
2023/04/18 01:26:32;;;;;;;6.45;4.78;;;;;;;;;;5039823;28;20029;-67
2023/04/18 01:28:57;;;;;;;5.70;4.90;;;;;;;;;;5042918;28;20025;-65
2023/04/18 01:31:22;;;;;;;6.27;5.10;;;;;;;;;;5041294;28;20043;-65
2023/04/18 01:33:48;;;;;;;5.80;4.63;;;;;;;;;;5042166;28;20148;-61
2023/04/18 01:36:13;;;;;;;6.13;4.70;;;;;;;;;;5037580;28;20113;-68
2023/04/18 01:38:38;;;;;;;7.05;5.00;;;;;;;;;;5042422;28;20112;-63
2023/04/18 01:41:03;;;;;;;6.50;5.13;;;;;;;;;;5043833;28;20102;-62
2023/04/18 01:43:29;;;;;;;5.40;4.67;;;;;;;;;;5040207;28;20025;-64
2023/04/18 01:45:54;;;;;;;5.67;4.30;;;;;;;;;;5043666;28;20094;-65
2023/04/18 01:48:19;;;;;;;6.05;4.50;;;;;;;;;;5042497;28;20776;-64
2023/04/18 01:50:44;;;;;;;5.47;4.30;;;;;;;;;;5034372;28;20088;-67
2023/04/18 01:53:09;;;;;;;5.67;4.60;;;;;;;;;;5029312;28;20382;-66
2023/04/18 01:55:35;;;;;;;5.40;4.20;;;;;;;;;;5042348;28;20072;-67
2023/04/18 01:58:00;;;;;;;5.82;4.40;;;;;;;;;;5043131;28;20026;-67
2023/04/18 02:00:25;;;;;;;6.20;4.50;;;;;;;;;;5041825;28;20079;-67
2023/04/18 02:02:51;;;;;;;6.25;4.63;;;;;;;;;;5032277;28;20032;-61
2023/04/18 02:05:16;;;;;;;6.60;4.75;;;;;;;;;;5037058;28;20441;-65
2023/04/18 02:07:41;;;;;;;6.27;5.03;;;;;;;;;;5033056;28;20523;-60
2023/04/18 02:10:07;;;;;;;6.88;4.15;;;;;;;;;;5029107;28;20290;-65
2023/04/18 02:12:33;;;;;;;5.50;4.38;;;;;;;;;;5033725;28;20591;-59
2023/04/18 02:14:58;;;;;;;5.15;4.20;;;;;;;;;;5041808;28;20056;-62
2023/04/18 02:17:23;;;;;;;5.60;4.33;;;;;;;;;;5037400;28;20117;-67
2023/04/18 02:19:51;;;;;;;5.55;4.18;;;;;;;;;;5040901;28;20345;-62
2023/04/18 02:22:16;;;;;;;6.13;4.18;;;;;;;;;;5035666;28;20032;-63
2023/04/18 02:24:42;;;;;;;5.53;4.40;;;;;;;;;;5043703;28;20025;-67
2023/04/18 02:27:07;;;;;;;5.70;4.50;;;;;;;;;;5041823;28;20406;-67
2023/04/18 02:29:32;;;;;;;5.45;4.50;;;;;;;;;;5043097;28;20485;-63
2023/04/18 02:31:57;;;;;;;5.47;4.00;;;;;;;;;;5036355;28;20045;-66
2023/04/18 02:34:22;;;;;;;6.20;4.40;;;;;;;;;;5031403;28;20272;-66
2023/04/18 02:36:48;;;;;;;5.40;4.03;;;;;;;;;;5038624;28;20052;-67
2023/04/18 02:39:13;;;;;;;4.97;3.83;;;;;;;;;;5036773;28;20033;-67
2023/04/18 02:41:38;;;;;;;5.50;4.05;;;;;;;;;;5038749;28;20308;-67
2023/04/18 02:44:04;;;;;;;4.68;3.72;;;;;;;;;;5040157;28;20094;-67
2023/04/18 02:46:29;;;;;;;5.60;4.20;;;;;;;;;;5035249;28;20034;-62
2023/04/18 02:48:54;;;;;;;4.90;3.85;;;;;;;;;;5043434;28;20438;-65
2023/04/18 02:51:20;;;;;;;5.07;4.00;;;;;;;;;;5042067;28;20037;-65
2023/04/18 02:53:45;;;;;;;4.57;3.90;;;;;;;;;;5043638;28;20893;-64
2023/04/18 02:56:13;;;;;;;6.00;4.45;;;;;;;;;;5041942;28;20274;-59
2023/04/18 02:58:39;;;;;;;5.95;4.25;;;;;;;;;;5024636;28;20079;-64
2023/04/18 03:01:04;;;;;;;4.53;3.83;;;;;;;;;;5037805;28;20436;-65
2023/04/18 03:03:29;;;;;;;4.90;4.00;;;;;;;;;;5035646;28;20029;-66
2023/04/18 03:05:55;;;;;;;4.77;3.60;;;;;;;;;;5045142;28;20488;-65
2023/04/18 03:08:20;;;;;;;5.10;4.28;;;;;;;;;;5035142;28;20827;-65
2023/04/18 03:10:45;;;;;;;4.93;3.97;;;;;;;;;;5033330;28;20132;-64
2023/04/18 03:13:10;;;;;;;5.50;3.93;;;;;;;;;;5031185;28;20069;-61
2023/04/18 03:15:36;;;;;;;5.43;4.20;;;;;;;;;;5041108;28;20348;-65
2023/04/18 03:18:01;;;;;;;6.03;3.72;;;;;;;;;;5038516;28;20264;-64
2023/04/18 03:20:26;;;;;;;4.88;3.47;;;;;;;;;;5046659;28;20044;-66
2023/04/18 03:22:51;;;;;;;5.13;3.67;;;;;;;;;;5040381;28;20501;-68
2023/04/18 03:25:17;;;;;;;4.28;3.67;;;;;;;;;;5043696;28;20128;-67
2023/04/18 03:27:42;;;;;;;4.83;3.67;;;;;;;;;;5046740;28;20017;-68
2023/04/18 03:30:08;;;;;;;4.30;3.38;;;;;;;;;;5046388;28;20045;-63
2023/04/18 03:32:33;;;;;;;4.75;3.50;;;;;;;;;;5042682;28;20319;-68
2023/04/18 03:34:59;;;;;;;4.07;3.40;;;;;;;;;;5038234;28;20057;-63
2023/04/18 03:37:24;;;;;;;5.25;3.90;;;;;;;;;;5040545;28;20036;-63
2023/04/18 03:39:49;;;;;;;4.68;3.33;;;;;;;;;;5037685;28;20045;-65
2023/04/18 03:42:15;;;;;;;4.57;3.50;;;;;;;;;;5043228;28;20033;-65
2023/04/18 03:44:40;;;;;;;4.53;3.63;;;;;;;;;;5046177;28;20362;-66
2023/04/18 03:47:05;;;;;;;5.57;3.80;;;;;;;;;;5039655;28;20137;-65
2023/04/18 03:49:30;;;;;;;4.07;3.10;;;;;;;;;;5034333;28;20053;-67
2023/04/18 03:51:55;;;;;;;4.77;3.63;;;;;;;;;;5039508;28;20288;-62
2023/04/18 03:54:21;;;;;;;4.63;3.53;;;;;;;;;;5040675;28;20037;-65
2023/04/18 03:56:46;;;;;;;3.78;3.28;;;;;;;;;;5045991;28;20025;-62
2023/04/18 03:59:11;;;;;;;5.13;4.00;;;;;;;;;;5046099;28;20478;-62
2023/04/18 04:01:36;;;;;;;5.07;3.57;;;;;;;;;;5039683;28;20272;-66
2023/04/18 04:04:02;;;;;;;5.00;3.63;;;;;;;;;;5039742;28;20029;-66
2023/04/18 04:06:27;;;;;;;4.47;3.53;;;;;;;;;;5030151;28;20036;-67
2023/04/18 04:08:52;;;;;;;4.27;3.50;;;;;;;;;;5026593;28;20469;-68
2023/04/18 04:11:17;;;;;;;4.33;3.50;;;;;;;;;;5031988;28;20374;-67
2023/04/18 04:13:43;;;;;;;4.70;3.60;;;;;;;;;;5033274;28;20294;-67
2023/04/18 04:16:08;;;;;;;4.53;3.70;;;;;;;;;;5036918;28;20296;-67
2023/04/18 04:18:33;;;;;;;4.33;3.60;;;;;;;;;;5045409;28;20329;-68
2023/04/18 04:20:58;;;;;;;4.55;3.58;;;;;;;;;;5044876;28;20107;-64
2023/04/18 04:23:27;;;;;;;4.55;3.22;;;;;;;;;;5043251;28;20037;-64
2023/04/18 04:25:52;;;;;;;4.25;3.42;;;;;;;;;;5040164;28;20037;-67
2023/04/18 04:28:21;;;;;;;3.97;3.33;;;;;;;;;;5040692;28;20036;-67
2023/04/18 04:30:47;;;;;;;4.33;3.57;;;;;;;;;;5036322;28;20360;-65
2023/04/18 04:33:12;;;;;;;4.60;3.50;;;;;;;;;;5038878;28;20120;-64
2023/04/18 04:35:37;;;;;;;3.87;3.27;;;;;;;;;;5032619;28;20431;-66
2023/04/18 04:38:03;;;;;;;3.77;3.20;;;;;;;;;;5034478;28;20325;-66
2023/04/18 04:40:28;;;;;;;4.27;3.27;;;;;;;;;;5042605;28;20428;-67
2023/04/18 04:42:53;;;;;;;4.70;3.43;;;;;;;;;;5040328;28;20704;-60
2023/04/18 04:45:19;;;;;;;4.07;3.30;;;;;;;;;;5036804;28;20841;-62
2023/04/18 04:47:44;;;;;;;6.43;3.78;;;;;;;;;;5031412;28;20437;-66
2023/04/18 04:50:14;;;;;;;5.20;3.60;;;;;;;;;;5043786;28;20033;-67
2023/04/18 04:52:39;;;;;;;4.38;3.50;;;;;;;;;;5043865;28;20558;-67
2023/04/18 04:55:05;;;;;;;4.20;3.40;;;;;;;;;;5040350;28;20032;-62
2023/04/18 04:57:30;;;;;;;3.97;2.90;;;;;;;;;;5029956;28;20040;-67
2023/04/18 04:59:55;;;;;;;4.07;3.00;;;;;;;;;;5038926;28;20049;-67
2023/04/18 05:02:22;;;;;;;4.37;3.17;;;;;;;;;;5037955;28;20696;-64
2023/04/18 05:04:47;;;;;;;3.72;2.90;;;;;;;;;;5043030;28;20041;-64
2023/04/18 05:07:12;;;;;;;4.63;3.53;;;;;;;;;;5028546;28;20503;-65
2023/04/18 05:09:37;;;;;;;4.17;3.10;;;;;;;;;;5025762;28;20025;-62
2023/04/18 05:12:03;;;;;;;4.97;3.20;;;;;;;;;;5025454;28;20044;-62
2023/04/18 05:14:29;;;;;;;3.95;2.90;;;;;;;;;;5031189;28;20488;-64
2023/04/18 05:16:55;;;;;;;3.85;2.90;;;;;;;;;;5029264;28;20041;-67
2023/04/18 05:19:20;;;;;;;4.10;3.33;;;;;;;;;;5028509;28;20142;-62
2023/04/18 05:21:45;;;;;;;4.30;2.90;;;;;;;;;;5042864;28;20120;-63
2023/04/18 05:24:10;;;;;;;4.93;3.28;;;;;;;;;;5037629;28;20288;-61
2023/04/18 05:26:35;;;;;;;4.00;3.13;;;;;;;;;;5033743;28;20036;-63
2023/04/18 05:29:01;;;;;;;3.60;2.80;;;;;;;;;;5024058;28;20276;-63
2023/04/18 05:31:26;;;;;;;3.87;3.17;;;;;;;;;;5033130;28;20374;-61
2023/04/18 05:33:51;;;;;;;3.93;2.93;;;;;;;;;;5041479;28;20124;-59
2023/04/18 05:36:16;;;;;;;4.83;2.80;;;;;;;;;;5033187;28;20893;-59
2023/04/18 05:38:42;;;;;;;4.03;2.47;;;;;;;;;;5033430;28;20512;-63
2023/04/18 05:41:07;;;;;;;3.93;3.10;;;;;;;;;;5043132;28;20295;-62
2023/04/18 05:43:32;;;;;;;3.30;2.43;;;;;;;;;;5031941;28;20362;-66
2023/04/18 05:45:57;;;;;;;3.93;2.70;;;;;;;;;;5034654;28;20060;-62
2023/04/18 05:48:23;;;;;;;4.87;3.30;;;;;;;;;;5031441;28;20337;-62
2023/04/18 05:50:49;;;;;;;4.78;3.00;;;;;;;;;;5031540;28;20283;-60
2023/04/18 05:53:14;;;;;;;5.63;3.30;;;;;;;;;;5027025;28;20056;-60
2023/04/18 05:55:39;;;;;;;5.67;2.80;;;;;;;;;;5037956;28;20316;-62
2023/04/18 05:58:05;;;;;;;4.20;2.80;;;;;;;;;;5035275;28;20656;-62
2023/04/18 06:00:30;;;;;;;3.67;2.83;;;;;;;;;;5031727;28;20605;-57
2023/04/18 06:02:56;;;;;;;3.30;2.70;;;;;;;;;;5033493;28;20072;-62
2023/04/18 06:05:21;;;;;;;4.53;2.90;;;;;;;;;;5031279;28;20088;-63
2023/04/18 06:07:47;;;;;;;3.88;3.22;;;;;;;;;;5035580;28;20345;-59
2023/04/18 06:10:12;;;;;;;3.47;2.78;;;;;;;;;;5035070;28;20040;-60
2023/04/18 06:12:37;;;;;;;3.97;2.92;;;;;;;;;;5036578;28;20127;-62
2023/04/18 06:15:04;;;;;;;4.22;2.80;;;;;;;;;;5040721;28;20556;-62
2023/04/18 06:17:29;;;;;;;4.32;3.28;;;;;;;;;;5038367;28;20033;-62
2023/04/18 06:19:54;;;;;;;4.32;2.92;;;;;;;;;;5034766;28;20041;-63
2023/04/18 06:22:20;;;;;;;3.40;2.47;;;;;;;;;;5037988;28;20117;-62
2023/04/18 06:24:45;;;;;;;5.27;2.90;;;;;;;;;;5038048;28;20094;-61
2023/04/18 06:27:10;;;;;;;3.90;3.13;;;;;;;;;;5039939;28;20838;-64
2023/04/18 06:29:36;;;;;;;4.95;3.40;;;;;;;;;;5033430;28;20072;-62
2023/04/18 06:32:02;;;;;;;4.53;3.20;;;;;;;;;;5028386;28;20046;-63
2023/04/18 06:34:27;;;;;;;3.70;3.13;;;;;;;;;;5033365;28;20425;-61
2023/04/18 06:36:52;;;;;;;5.57;3.00;;;;;;;;;;5043844;28;20033;-59
2023/04/18 06:39:17;;;;;;;3.83;3.23;;;;;;;;;;5034071;28;20029;-60
2023/04/18 06:41:43;;;;;;;3.70;2.70;;;;;;;;;;5046355;28;20037;-62
2023/04/18 06:44:08;;;;;;;3.50;2.73;;;;;;;;;;5041118;28;20295;-64
2023/04/18 06:46:33;;;;;;;3.90;2.93;;;;;;;;;;5043215;28;20041;-62
2023/04/18 06:48:58;;;;;;;4.53;3.07;;;;;;;;;;5047468;28;20507;-59
2023/04/18 06:51:23;;;;;;;4.07;3.07;;;;;;;;;;5038433;28;20065;-61
2023/04/18 06:53:51;;;;;;;4.23;3.20;;;;;;;;;;5041861;28;20908;-65
2023/04/18 06:56:17;;;;;;;3.67;2.90;;;;;;;;;;5031916;28;20049;-62
2023/04/18 06:58:42;;;;;;;3.63;2.90;;;;;;;;;;5033432;28;20539;-63
2023/04/18 07:01:07;;;;;;;4.60;3.30;;;;;;;;;;5028753;28;20045;-64
2023/04/18 07:03:33;;;;;;;3.30;2.93;;;;;;;;;;5030820;28;20298;-60
2023/04/18 07:05:58;;;;;;;3.80;2.75;;;;;;;;;;5029274;28;20084;-62
2023/04/18 07:08:23;;;;;;;5.30;3.23;;;;;;;;;;5028945;28;20438;-68
2023/04/18 07:10:48;;;;;;;3.60;3.17;;;;;;;;;;5030154;28;20284;-62
2023/04/18 07:13:14;;;;;;;3.93;3.00;;;;;;;;;;5027793;28;20360;-62
2023/04/18 07:15:40;;;;;;;3.92;3.03;;;;;;;;;;5026179;28;20045;-58
2023/04/18 07:18:05;;;;;;;5.32;3.35;;;;;;;;;;5030305;28;20048;-66
2023/04/18 07:20:31;;;;;;;5.60;3.47;;;;;;;;;;5029479;28;20048;-60
2023/04/18 07:22:56;;;;;;;4.27;3.10;;;;;;;;;;5029727;28;20044;-65
2023/04/18 07:25:21;;;;;;;4.00;2.97;;;;;;;;;;5028923;28;20321;-67
2023/04/18 07:27:46;;;;;;;8.93;3.25;;;;;;;;;;5034999;28;20028;-61
2023/04/18 07:30:12;;;;;;;7.63;3.42;;;;;;;;;;5040956;28;20041;-65
2023/04/18 07:32:37;;;;;;;6.57;3.22;;;;;;;;;;5038431;28;20026;-70
2023/04/18 07:35:03;;;;;;;5.27;3.10;;;;;;;;;;5039288;28;20104;-64
2023/04/18 07:37:28;;;;;;;6.10;3.38;;;;;;;;;;5045521;28;20445;-64
2023/04/18 07:39:53;;;;;;;6.50;3.40;;;;;;;;;;5032166;28;20081;-67
2023/04/18 07:42:18;;;;;;;7.43;3.47;;;;;;;;;;5023769;28;20381;-63
2023/04/18 07:44:44;;;;;;;8.03;3.20;;;;;;;;;;5025249;28;20045;-64
2023/04/18 07:47:09;;;;;;;7.13;3.20;;;;;;;;;;5047525;28;20041;-62
2023/04/18 07:49:34;;;;;;;4.47;2.83;;;;;;;;;;5033157;28;20033;-65
2023/04/18 07:51:59;;;;;;;8.55;2.95;;;;;;;;;;5033152;28;20268;-58
2023/04/18 07:54:25;;;;;;;4.10;2.97;;;;;;;;;;5044406;28;20991;-61
2023/04/18 07:56:50;;;;;;;4.35;3.42;;;;;;;;;;5026256;28;20274;-65
2023/04/18 07:59:15;;;;;;;6.70;3.55;;;;;;;;;;5027026;28;20022;-70
2023/04/18 08:01:40;;;;;;;5.57;3.13;;;;;;;;;;5034548;28;20048;-69
2023/04/18 08:04:06;;;;;;;4.13;2.97;;;;;;;;;;5039795;28;20344;-61
2023/04/18 08:06:32;;;;;;;5.22;2.95;;;;;;;;;;5045654;28;20259;-63
2023/04/18 08:08:57;;;;;;;4.22;2.97;;;;;;;;;;5033265;28;20346;-67
2023/04/18 08:11:23;;;;;;;5.47;2.90;;;;;;;;;;5045442;28;20818;-62
2023/04/18 08:13:48;;;;;;;7.25;3.05;;;;;;;;;;5031887;28;20401;-68
2023/04/18 08:16:13;;;;;;;4.80;3.10;;;;;;;;;;5043218;28;20060;-69
2023/04/18 08:18:38;;;;;;;4.30;2.95;;;;;;;;;;5046488;28;20439;-63
2023/04/18 08:21:04;;;;;;;4.67;3.17;;;;;;;;;;5036047;28;20062;-66
2023/04/18 08:23:29;;;;;;;5.35;3.08;;;;;;;;;;5040591;28;20290;-61
2023/04/18 08:25:54;;;;;;;4.63;3.15;;;;;;;;;;5027930;28;20362;-62
2023/04/18 08:28:20;;;;;;;4.20;2.80;;;;;;;;;;5040512;28;20747;-68
2023/04/18 08:30:47;;;;;;;5.22;3.00;;;;;;;;;;5036079;28;20301;-57
2023/04/18 08:33:13;;;;;;;3.58;2.90;;;;;;;;;;5031755;28;20044;-66
2023/04/18 08:35:39;;;;;;;5.30;3.00;;;;;;;;;;5039183;28;20017;-69
2023/04/18 08:38:04;;;;;;;4.72;2.83;;;;;;;;;;5025820;28;20085;-63
2023/04/18 08:40:29;;;;;;;4.80;3.20;;;;;;;;;;5048707;28;20036;-62
2023/04/18 08:42:55;;;;;;;4.43;2.88;;;;;;;;;;5031525;28;20021;-62
2023/04/18 08:45:20;;;;;;;4.03;2.97;;;;;;;;;;5050187;28;20660;-66
2023/04/18 08:47:45;;;;;;;4.05;3.03;;;;;;;;;;5025818;28;20100;-65
2023/04/18 08:50:11;;;;;;;4.90;2.80;;;;;;;;;;5024732;28;20022;-67
2023/04/18 08:52:37;;;;;;;4.30;2.78;;;;;;;;;;5038533;28;20053;-67
2023/04/18 08:55:03;;;;;;;5.03;3.25;;;;;;;;;;5030596;28;20028;-61
2023/04/18 08:57:29;;;;;;;4.15;2.90;;;;;;;;;;5042260;28;20567;-66
2023/04/18 08:59:55;;;;;;;4.30;3.05;;;;;;;;;;5023892;28;20420;-64
2023/04/18 09:02:25;;;;;;;4.93;3.20;;;;;;;;;;5037014;28;20025;-68
2023/04/18 09:04:54;;;;;;;5.07;3.30;;;;;;;;;;5034237;28;20157;-64
2023/04/18 09:07:26;;;;;;;3.70;2.88;;;;;;;;;;5036901;28;20029;-65
2023/04/18 09:09:51;;;;;;;3.58;2.97;;;;;;;;;;5032549;28;20124;-66
2023/04/18 09:12:17;;;;;;;5.13;2.97;;;;;;;;;;5042606;28;20442;-65
2023/04/18 09:14:44;;;;;;;5.37;2.80;;;;;;;;;;5055453;28;20025;-65
2023/04/18 09:17:13;;;;;;;3.78;2.80;;;;;;;;;;5030690;28;20067;-59
2023/04/18 09:19:47;;;;;;;4.72;3.22;;;;;;;;;;5036548;28;20045;-66
2023/04/18 09:22:12;;;;;;;3.78;3.13;;;;;;;;;;5029654;28;20032;-60
2023/04/18 09:24:39;;;;;;;3.65;2.92;;;;;;;;;;5032520;28;20478;-65
2023/04/18 09:27:05;;;;;;;3.83;2.95;;;;;;;;;;5023795;28;20379;-65
2023/04/18 09:29:46;;;;;;;3.50;2.95;;;;;;;;;;5029768;28;20033;-65
2023/04/18 09:32:23;;;;;;;4.43;3.17;;;;;;;;;;5024608;28;20045;-64
2023/04/18 09:34:50;;;;;;;3.85;2.90;;;;;;;;;;5035585;28;20460;-65
2023/04/18 09:37:15;;;;;;;3.92;3.00;;;;;;;;;;5040581;28;20107;-65
2023/04/18 09:39:41;;;;;;;3.80;2.77;;;;;;;;;;5025487;28;20497;-66
2023/04/18 09:42:07;;;;;;;4.53;3.00;;;;;;;;;;5041285;28;20506;-68
2023/04/18 09:44:32;;;;;;;4.53;3.00;;;;;;;;;;5044464;28;20029;-65
2023/04/18 09:46:57;;;;;;;4.05;3.05;;;;;;;;;;5051537;28;20068;-69
2023/04/18 09:49:23;;;;;;;3.23;2.67;;;;;;;;;;5044413;28;20092;-63
2023/04/18 09:51:49;;;;;;;4.15;3.03;;;;;;;;;;5043809;28;20037;-68
2023/04/18 09:54:15;;;;;;;3.85;2.70;;;;;;;;;;5042804;28;20033;-65
2023/04/18 09:56:42;;;;;;;3.53;2.75;;;;;;;;;;5034145;28;20053;-68
2023/04/18 09:59:08;;;;;;;3.50;3.10;;;;;;;;;;5044224;28;20032;-64
2023/04/18 10:01:33;;;;;;;3.65;2.95;;;;;;;;;;5042265;28;20097;-69
2023/04/18 10:03:59;;;;;;;4.60;3.17;;;;;;;;;;5051196;28;20200;-65
2023/04/18 10:06:26;;;;;;;4.22;2.85;;;;;;;;;;5039216;28;20055;-66
2023/04/18 10:08:51;;;;;;;3.60;2.83;;;;;;;;;;5041032;28;20037;-65
2023/04/18 10:11:16;;;;;;;3.80;2.95;;;;;;;;;;5042117;28;20537;-67
2023/04/18 10:13:42;;;;;;;3.70;2.80;;;;;;;;;;5048594;28;20024;-60
2023/04/18 10:16:07;;;;;;;4.03;3.00;;;;;;;;;;5045568;28;20029;-66
2023/04/18 10:18:32;;;;;;;3.87;2.70;;;;;;;;;;5044494;28;20041;-68
2023/04/18 10:21:02;;;;;;;3.27;2.60;;;;;;;;;;5059627;28;20280;-65
2023/04/18 10:23:33;;;;;;;4.20;2.60;;;;;;;;;;5046150;28;20860;-66
2023/04/18 10:25:59;;;;;;;4.30;2.90;;;;;;;;;;5038711;28;20080;-64
2023/04/18 10:28:25;;;;;;;4.18;2.70;;;;;;;;;;5056922;28;20505;-67
2023/04/18 10:31:02;;;;;;;4.53;2.90;;;;;;;;;;5047833;28;20108;-68
2023/04/18 10:33:29;;;;;;;3.58;2.90;;;;;;;;;;5046730;28;20040;-65
2023/04/18 10:35:57;;;;;;;3.38;2.50;;;;;;;;;;5046053;28;20065;-64
2023/04/18 10:38:22;;;;;;;3.00;2.60;;;;;;;;;;5055535;28;20555;-68
2023/04/18 10:40:48;;;;;;;3.47;2.75;;;;;;;;;;5044092;28;20044;-66
2023/04/18 10:43:13;;;;;;;4.03;2.72;;;;;;;;;;5047443;28;20030;-63
2023/04/18 10:45:38;;;;;;;3.77;2.53;;;;;;;;;;5048011;28;20029;-69
2023/04/18 10:48:29;;;;;;;3.08;2.38;;;;;;;;;;5045903;28;20268;-64
2023/04/18 10:51:17;;;;;;;3.72;2.60;;;;;;;;;;5037139;28;20060;-66
2023/04/18 10:53:45;;;;;;;3.08;2.53;;;;;;;;;;5033543;28;20067;-67
2023/04/18 10:56:10;;;;;;;3.70;2.58;;;;;;;;;;5048123;28;20024;-67
2023/04/18 10:58:35;;;;;;;3.40;2.53;;;;;;;;;;5046222;28;20041;-68
2023/04/18 11:01:01;;;;;;;4.57;2.97;;;;;;;;;;5048108;28;20102;-63
2023/04/18 11:03:32;;;;;;;4.00;3.05;;;;;;;;;;5047204;28;21034;-65
2023/04/18 11:06:01;;;;;;;3.83;2.63;;;;;;;;;;5047355;28;20064;-65
2023/04/18 11:08:26;;;;;;;4.47;2.80;;;;;;;;;;5046053;28;20515;-68
2023/04/18 11:10:55;;;;;;;3.50;2.73;;;;;;;;;;5046848;28;20041;-64
2023/04/18 11:13:21;;;;;;;3.40;2.90;;;;;;;;;;5045833;28;20282;-62
2023/04/18 11:15:46;;;;;;;3.23;2.70;;;;;;;;;;5046921;28;20393;-64
2023/04/18 11:18:11;;;;;;;3.67;2.90;;;;;;;;;;5038071;28;20264;-66
2023/04/18 11:20:37;;;;;;;4.10;2.50;;;;;;;;;;5044362;28;20124;-67
2023/04/18 11:23:02;;;;;;;3.55;2.80;;;;;;;;;;5045357;28;20725;-67
2023/04/18 11:25:27;;;;;;;3.40;2.83;;;;;;;;;;5046676;28;20043;-67
2023/04/18 11:27:55;;;;;;;5.27;2.83;;;;;;;;;;5042614;28;20436;-65
2023/04/18 11:30:21;;;;;;;3.22;2.60;;;;;;;;;;5050849;28;20103;-63
2023/04/18 11:32:46;;;;;;;3.95;2.78;;;;;;;;;;5037884;28;20033;-65
2023/04/18 11:35:12;;;;;;;4.20;2.83;;;;;;;;;;5042939;28;20465;-63
2023/04/18 11:37:37;;;;;;;3.75;2.60;;;;;;;;;;5033397;28;20474;-69
2023/04/18 11:40:03;;;;;;;3.60;2.55;;;;;;;;;;5047460;28;20563;-68
2023/04/18 11:42:29;;;;;;;3.45;2.55;;;;;;;;;;5047084;28;20071;-65
2023/04/18 11:44:54;;;;;;;3.13;2.58;;;;;;;;;;5045502;28;20037;-63
2023/04/18 11:47:32;;;;;;;3.40;2.60;;;;;;;;;;5050063;28;20037;-64
2023/04/18 11:50:01;;;;;;;3.20;2.50;;;;;;;;;;5046704;28;20063;-60
2023/04/18 11:52:27;;;;;;;3.75;2.55;;;;;;;;;;5045383;28;20087;-67
2023/04/18 11:54:52;;;;;;;3.22;2.80;;;;;;;;;;5045997;28;20064;-65
2023/04/18 11:57:21;;;;;;;3.67;2.50;;;;;;;;;;5042530;28;20405;-67
2023/04/18 11:59:47;;;;;;;4.57;3.00;;;;;;;;;;5060424;28;20341;-67
2023/04/18 12:02:12;;;;;;;3.60;2.58;;;;;;;;;;5043003;28;20073;-65
2023/04/18 12:04:51;;;;;;;4.17;2.87;;;;;;;;;;5056861;28;21174;-60
2023/04/18 12:07:29;;;;;;;3.57;2.73;;;;;;;;;;5024880;28;20034;-62
2023/04/18 12:09:55;;;;;;;3.72;2.38;;;;;;;;;;5034468;28;20041;-64
2023/04/18 12:12:20;;;;;;;3.07;2.40;;;;;;;;;;5046307;28;20598;-67
2023/04/18 12:14:45;;;;;;;3.57;2.80;;;;;;;;;;5046710;28;20509;-62
2023/04/18 12:17:11;;;;;;;2.90;2.50;;;;;;;;;;5046119;28;20049;-64
2023/04/18 12:19:36;;;;;;;3.40;2.22;;;;;;;;;;5040731;28;20070;-67
2023/04/18 12:22:03;;;;;;;4.13;2.63;;;;;;;;;;5045891;28;20430;-69
2023/04/18 12:24:30;;;;;;;3.28;2.30;;;;;;;;;;5037553;28;20533;-65
2023/04/18 12:26:56;;;;;;;3.95;2.63;;;;;;;;;;5040794;28;20033;-61
2023/04/18 12:29:22;;;;;;;2.72;2.13;;;;;;;;;;5037237;28;20099;-66
2023/04/18 12:31:47;;;;;;;2.95;2.30;;;;;;;;;;5040707;28;20500;-69
2023/04/18 12:34:13;;;;;;;3.00;2.23;;;;;;;;;;5041898;28;20041;-69
2023/04/18 12:36:38;;;;;;;3.13;2.40;;;;;;;;;;5045965;28;20342;-67
2023/04/18 12:39:03;;;;;;;3.60;2.70;;;;;;;;;;5034034;28;20060;-68
2023/04/18 12:41:29;;;;;;;3.83;2.65;;;;;;;;;;5045829;28;20303;-64
2023/04/18 12:43:54;;;;;;;3.58;2.30;;;;;;;;;;5046642;28;20346;-67
2023/04/18 12:46:19;;;;;;;3.10;2.17;;;;;;;;;;5045439;28;20029;-65
2023/04/18 12:48:44;;;;;;;2.80;2.10;;;;;;;;;;5045280;28;20268;-62
2023/04/18 12:51:10;;;;;;;2.85;2.22;;;;;;;;;;5057127;28;20067;-61
2023/04/18 12:53:35;;;;;;;3.03;2.40;;;;;;;;;;5045738;28;20438;-63
2023/04/18 12:56:01;;;;;;;2.90;2.37;;;;;;;;;;5054137;28;20128;-67
2023/04/18 12:58:26;;;;;;;3.42;2.30;;;;;;;;;;5044866;28;20060;-64
2023/04/18 13:00:51;;;;;;;2.97;2.20;;;;;;;;;;5037850;28;20113;-64
2023/04/18 13:03:16;;;;;;;3.27;2.40;;;;;;;;;;5043781;28;20023;-66
2023/04/18 13:05:42;;;;;;;3.30;2.30;;;;;;;;;;5048644;28;20725;-63
2023/04/18 13:08:07;;;;;;;4.10;2.23;;;;;;;;;;5042029;28;20468;-67
2023/04/18 13:10:32;;;;;;;3.00;2.42;;;;;;;;;;5045374;28;20309;-64
2023/04/18 13:12:57;;;;;;;2.35;1.98;;;;;;;;;;5043520;28;20041;-70
2023/04/18 13:15:23;;;;;;;2.63;2.13;;;;;;;;;;5042982;28;20113;-66
2023/04/18 13:17:48;;;;;;;2.60;2.03;;;;;;;;;;5043275;28;20112;-67
2023/04/18 13:20:15;;;;;;;3.00;2.20;;;;;;;;;;5043649;28;20056;-61
2023/04/18 13:22:40;;;;;;;2.85;2.00;;;;;;;;;;5043179;28;20469;-65
2023/04/18 13:25:07;;;;;;;2.60;2.03;;;;;;;;;;5030837;28;20037;-59
2023/04/18 13:27:32;;;;;;;2.70;2.10;;;;;;;;;;5048270;28;20525;-64
2023/04/18 13:29:57;;;;;;;3.17;2.30;;;;;;;;;;5043036;28;20080;-67
2023/04/18 13:32:23;;;;;;;2.78;1.90;;;;;;;;;;5042673;28;20274;-69
2023/04/18 13:34:48;;;;;;;3.63;2.30;;;;;;;;;;5042983;28;20386;-66
2023/04/18 13:37:13;;;;;;;2.65;2.05;;;;;;;;;;5041168;28;20396;-68
2023/04/18 13:39:39;;;;;;;3.30;2.33;;;;;;;;;;5043174;28;20060;-64
2023/04/18 13:42:06;;;;;;;2.30;1.83;;;;;;;;;;5042748;28;20420;-70
2023/04/18 13:44:31;;;;;;;3.03;2.22;;;;;;;;;;5050290;28;20040;-65
2023/04/18 13:46:56;;;;;;;2.78;2.10;;;;;;;;;;5043836;28;20449;-67
2023/04/18 13:49:22;;;;;;;2.85;2.30;;;;;;;;;;5042448;28;20095;-60
2023/04/18 13:51:49;;;;;;;3.15;1.10;;;;;;;;;;5029323;28;20056;-63
2023/04/18 13:54:15;;;;;;;5.68;2.10;;;;;;;;;;5035371;28;20096;-70
2023/04/18 13:56:40;;;;;;;6.53;2.55;;;;;;;;;;5030642;28;20032;-67
2023/04/18 13:59:06;;;;;;;2.65;0.93;;;;;;;;;;5030630;28;20041;-67
2023/04/18 14:01:31;;;;;;;3.28;1.00;;;;;;;;;;5035133;28;20402;-63
2023/04/18 14:03:56;;;;;;;2.73;1.07;;;;;;;;;;5022624;28;20048;-64
2023/04/18 14:06:21;;;;;;;2.63;0.90;;;;;;;;;;5030287;28;20042;-61
2023/04/18 14:08:48;;;;;;;1.80;0.82;;;;;;;;;;5038288;28;20041;-63
2023/04/18 14:11:13;;;;;;;2.95;1.17;;;;;;;;;;5037109;28;20492;-65
2023/04/18 14:13:38;;;;;;;4.90;1.13;;;;;;;;;;5029351;28;20133;-63
2023/04/18 14:16:05;;;;;;;2.43;0.80;;;;;;;;;;5030556;28;20117;-66
2023/04/18 14:18:30;;;;;;;1.90;0.90;;;;;;;;;;5047065;28;20033;-61
2023/04/18 14:20:55;;;;;;;2.20;0.80;;;;;;;;;;5036906;28;20574;-62
2023/04/18 14:23:21;;;;;;;1.97;0.60;;;;;;;;;;5031704;28;20284;-64
2023/04/18 14:25:46;;;;;;;3.20;0.85;;;;;;;;;;5036465;28;20275;-65
2023/04/18 14:28:12;;;;;;;1.90;0.63;;;;;;;;;;5043079;28;20052;-63
2023/04/18 14:30:37;;;;;;;1.40;0.52;;;;;;;;;;5048159;28;20953;-64
2023/04/18 14:33:02;;;;;;;2.38;1.00;;;;;;;;;;5034363;28;20069;-69
2023/04/18 14:35:28;;;;;;;3.07;0.90;;;;;;;;;;5026987;28;20231;-67